sensor_id;sensor_type;location;lat;lon;timestamp;P1;durP1;ratioP1;P2;durP2;ratioP2
17147;SDS011;8689;47.364;8.796;2024-02-14T00:01:28;4.47;;;4.07;;
17147;SDS011;8689;47.364;8.796;2024-02-14T00:03:57;4.33;;;4.13;;
17147;SDS011;8689;47.364;8.796;2024-02-14T00:06:24;5.10;;;4.80;;
17147;SDS011;8689;47.364;8.796;2024-02-14T00:08:52;5.23;;;4.93;;
17147;SDS011;8689;47.364;8.796;2024-02-14T00:11:19;3.93;;;3.73;;
17147;SDS011;8689;47.364;8.796;2024-02-14T00:13:48;5.17;;;4.73;;
17147;SDS011;8689;47.364;8.796;2024-02-14T00:16:16;4.37;;;3.97;;
17147;SDS011;8689;47.364;8.796;2024-02-14T00:18:44;4.73;;;4.20;;
17147;SDS011;8689;47.364;8.796;2024-02-14T00:21:13;4.90;;;4.53;;
17147;SDS011;8689;47.364;8.796;2024-02-14T00:23:41;4.70;;;4.50;;
17147;SDS011;8689;47.364;8.796;2024-02-14T00:26:10;4.33;;;3.93;;
17147;SDS011;8689;47.364;8.796;2024-02-14T00:28:39;4.67;;;4.47;;
17147;SDS011;8689;47.364;8.796;2024-02-14T00:31:21;4.67;;;4.37;;
17147;SDS011;8689;47.364;8.796;2024-02-14T00:33:50;4.57;;;4.27;;
17147;SDS011;8689;47.364;8.796;2024-02-14T00:36:19;4.97;;;4.67;;
17147;SDS011;8689;47.364;8.796;2024-02-14T00:38:47;4.37;;;4.17;;
17147;SDS011;8689;47.364;8.796;2024-02-14T00:41:29;4.33;;;3.97;;
17147;SDS011;8689;47.364;8.796;2024-02-14T00:43:57;4.97;;;4.67;;
17147;SDS011;8689;47.364;8.796;2024-02-14T00:46:25;5.50;;;5.00;;
17147;SDS011;8689;47.364;8.796;2024-02-14T00:48:53;4.67;;;4.30;;
17147;SDS011;8689;47.364;8.796;2024-02-14T00:51:22;4.73;;;4.43;;
17147;SDS011;8689;47.364;8.796;2024-02-14T00:53:51;4.97;;;4.50;;
17147;SDS011;8689;47.364;8.796;2024-02-14T00:56:19;6.30;;;4.70;;
17147;SDS011;8689;47.364;8.796;2024-02-14T00:58:48;4.83;;;4.43;;
17147;SDS011;8689;47.364;8.796;2024-02-14T01:01:16;5.07;;;4.77;;
17147;SDS011;8689;47.364;8.796;2024-02-14T01:03:44;4.13;;;3.93;;
17147;SDS011;8689;47.364;8.796;2024-02-14T01:06:11;4.97;;;4.67;;
17147;SDS011;8689;47.364;8.796;2024-02-14T01:08:40;5.97;;;5.37;;
17147;SDS011;8689;47.364;8.796;2024-02-14T01:11:09;5.00;;;4.50;;
17147;SDS011;8689;47.364;8.796;2024-02-14T01:13:37;5.10;;;4.90;;
17147;SDS011;8689;47.364;8.796;2024-02-14T01:16:05;4.10;;;3.80;;
17147;SDS011;8689;47.364;8.796;2024-02-14T01:18:33;5.00;;;4.80;;
17147;SDS011;8689;47.364;8.796;2024-02-14T01:21:01;4.60;;;4.30;;
17147;SDS011;8689;47.364;8.796;2024-02-14T01:23:29;4.87;;;4.57;;
17147;SDS011;8689;47.364;8.796;2024-02-14T01:25:58;4.80;;;4.50;;
17147;SDS011;8689;47.364;8.796;2024-02-14T01:28:36;5.70;;;5.30;;
17147;SDS011;8689;47.364;8.796;2024-02-14T01:31:03;5.00;;;4.57;;
17147;SDS011;8689;47.364;8.796;2024-02-14T01:33:36;5.13;;;4.73;;
17147;SDS011;8689;47.364;8.796;2024-02-14T01:36:04;4.47;;;4.27;;
17147;SDS011;8689;47.364;8.796;2024-02-14T01:38:32;5.10;;;4.80;;
17147;SDS011;8689;47.364;8.796;2024-02-14T01:41:04;4.90;;;4.60;;
17147;SDS011;8689;47.364;8.796;2024-02-14T01:43:42;5.43;;;5.13;;
17147;SDS011;8689;47.364;8.796;2024-02-14T01:46:11;4.97;;;4.67;;
17147;SDS011;8689;47.364;8.796;2024-02-14T01:48:39;5.50;;;5.10;;
17147;SDS011;8689;47.364;8.796;2024-02-14T01:51:10;4.67;;;4.30;;
17147;SDS011;8689;47.364;8.796;2024-02-14T01:53:39;4.33;;;3.93;;
17147;SDS011;8689;47.364;8.796;2024-02-14T01:56:09;5.20;;;4.77;;
17147;SDS011;8689;47.364;8.796;2024-02-14T01:58:37;4.50;;;4.20;;
17147;SDS011;8689;47.364;8.796;2024-02-14T02:01:06;5.20;;;4.80;;
17147;SDS011;8689;47.364;8.796;2024-02-14T02:03:35;4.87;;;4.30;;
17147;SDS011;8689;47.364;8.796;2024-02-14T02:06:03;4.27;;;3.97;;
17147;SDS011;8689;47.364;8.796;2024-02-14T02:08:32;4.37;;;4.07;;
17147;SDS011;8689;47.364;8.796;2024-02-14T02:10:59;5.17;;;4.87;;
17147;SDS011;8689;47.364;8.796;2024-02-14T02:13:30;4.80;;;4.50;;
17147;SDS011;8689;47.364;8.796;2024-02-14T02:15:57;5.53;;;5.03;;
17147;SDS011;8689;47.364;8.796;2024-02-14T02:18:26;4.90;;;4.60;;
17147;SDS011;8689;47.364;8.796;2024-02-14T02:20:54;5.13;;;4.73;;
17147;SDS011;8689;47.364;8.796;2024-02-14T02:23:24;5.43;;;5.13;;
17147;SDS011;8689;47.364;8.796;2024-02-14T02:25:52;4.63;;;4.33;;
17147;SDS011;8689;47.364;8.796;2024-02-14T02:28:19;4.60;;;4.30;;
17147;SDS011;8689;47.364;8.796;2024-02-14T02:30:46;5.13;;;4.83;;
17147;SDS011;8689;47.364;8.796;2024-02-14T02:33:14;4.70;;;4.30;;
17147;SDS011;8689;47.364;8.796;2024-02-14T02:35:51;4.10;;;3.90;;
17147;SDS011;8689;47.364;8.796;2024-02-14T02:38:19;5.27;;;4.97;;
17147;SDS011;8689;47.364;8.796;2024-02-14T02:41:04;5.43;;;5.07;;
17147;SDS011;8689;47.364;8.796;2024-02-14T02:43:31;4.60;;;4.30;;
17147;SDS011;8689;47.364;8.796;2024-02-14T02:46:00;5.13;;;4.93;;
17147;SDS011;8689;47.364;8.796;2024-02-14T02:48:33;4.47;;;4.10;;
17147;SDS011;8689;47.364;8.796;2024-02-14T02:51:02;5.57;;;5.27;;
17147;SDS011;8689;47.364;8.796;2024-02-14T02:53:29;5.60;;;4.77;;
17147;SDS011;8689;47.364;8.796;2024-02-14T02:55:56;5.50;;;5.10;;
17147;SDS011;8689;47.364;8.796;2024-02-14T02:58:26;5.53;;;5.17;;
17147;SDS011;8689;47.364;8.796;2024-02-14T03:00:54;5.17;;;4.87;;
17147;SDS011;8689;47.364;8.796;2024-02-14T03:03:23;4.07;;;3.90;;
17147;SDS011;8689;47.364;8.796;2024-02-14T03:05:53;5.10;;;4.70;;
17147;SDS011;8689;47.364;8.796;2024-02-14T03:08:22;5.70;;;5.20;;
17147;SDS011;8689;47.364;8.796;2024-02-14T03:10:51;4.47;;;4.20;;
17147;SDS011;8689;47.364;8.796;2024-02-14T03:13:18;5.00;;;4.70;;
17147;SDS011;8689;47.364;8.796;2024-02-14T03:15:48;6.90;;;6.17;;
17147;SDS011;8689;47.364;8.796;2024-02-14T03:18:16;5.63;;;5.17;;
17147;SDS011;8689;47.364;8.796;2024-02-14T03:20:43;5.57;;;5.23;;
17147;SDS011;8689;47.364;8.796;2024-02-14T03:23:11;5.10;;;4.10;;
17147;SDS011;8689;47.364;8.796;2024-02-14T03:25:40;5.10;;;4.80;;
17147;SDS011;8689;47.364;8.796;2024-02-14T03:28:07;5.50;;;5.07;;
17147;SDS011;8689;47.364;8.796;2024-02-14T03:30:38;5.20;;;4.77;;
17147;SDS011;8689;47.364;8.796;2024-02-14T03:33:08;6.33;;;5.17;;
17147;SDS011;8689;47.364;8.796;2024-02-14T03:35:35;5.00;;;4.70;;
17147;SDS011;8689;47.364;8.796;2024-02-14T03:38:03;5.10;;;4.70;;
17147;SDS011;8689;47.364;8.796;2024-02-14T03:40:33;5.00;;;4.70;;
17147;SDS011;8689;47.364;8.796;2024-02-14T03:43:03;5.23;;;4.93;;
17147;SDS011;8689;47.364;8.796;2024-02-14T03:45:45;4.97;;;4.67;;
17147;SDS011;8689;47.364;8.796;2024-02-14T03:48:29;4.70;;;4.47;;
17147;SDS011;8689;47.364;8.796;2024-02-14T03:50:56;4.77;;;4.50;;
17147;SDS011;8689;47.364;8.796;2024-02-14T03:53:24;4.47;;;4.07;;
17147;SDS011;8689;47.364;8.796;2024-02-14T03:55:51;4.57;;;4.30;;
17147;SDS011;8689;47.364;8.796;2024-02-14T03:58:19;5.67;;;4.60;;
17147;SDS011;8689;47.364;8.796;2024-02-14T04:00:49;5.30;;;4.10;;
17147;SDS011;8689;47.364;8.796;2024-02-14T04:03:19;4.73;;;4.47;;
17147;SDS011;8689;47.364;8.796;2024-02-14T04:05:47;4.00;;;3.77;;
17147;SDS011;8689;47.364;8.796;2024-02-14T04:08:15;4.23;;;4.03;;
17147;SDS011;8689;47.364;8.796;2024-02-14T04:10:43;3.80;;;3.50;;
17147;SDS011;8689;47.364;8.796;2024-02-14T04:13:11;3.80;;;3.60;;
17147;SDS011;8689;47.364;8.796;2024-02-14T04:15:38;4.20;;;3.80;;
17147;SDS011;8689;47.364;8.796;2024-02-14T04:18:08;4.27;;;4.03;;
17147;SDS011;8689;47.364;8.796;2024-02-14T04:21:00;4.43;;;4.23;;
17147;SDS011;8689;47.364;8.796;2024-02-14T04:23:29;4.80;;;4.50;;
17147;SDS011;8689;47.364;8.796;2024-02-14T04:25:59;5.30;;;3.90;;
17147;SDS011;8689;47.364;8.796;2024-02-14T04:28:27;4.33;;;4.03;;
17147;SDS011;8689;47.364;8.796;2024-02-14T04:30:54;4.63;;;4.20;;
17147;SDS011;8689;47.364;8.796;2024-02-14T04:33:22;4.97;;;4.63;;
17147;SDS011;8689;47.364;8.796;2024-02-14T04:35:50;3.80;;;3.60;;
17147;SDS011;8689;47.364;8.796;2024-02-14T04:38:21;4.00;;;3.70;;
17147;SDS011;8689;47.364;8.796;2024-02-14T04:40:49;4.53;;;4.17;;
17147;SDS011;8689;47.364;8.796;2024-02-14T04:43:17;4.50;;;4.10;;
17147;SDS011;8689;47.364;8.796;2024-02-14T04:45:46;5.43;;;5.03;;
17147;SDS011;8689;47.364;8.796;2024-02-14T04:48:14;5.20;;;4.70;;
17147;SDS011;8689;47.364;8.796;2024-02-14T04:50:42;5.30;;;4.90;;
17147;SDS011;8689;47.364;8.796;2024-02-14T04:53:09;5.00;;;4.70;;
17147;SDS011;8689;47.364;8.796;2024-02-14T04:55:38;5.23;;;4.90;;
17147;SDS011;8689;47.364;8.796;2024-02-14T04:58:07;5.10;;;4.80;;
17147;SDS011;8689;47.364;8.796;2024-02-14T05:00:35;4.33;;;3.93;;
17147;SDS011;8689;47.364;8.796;2024-02-14T05:03:04;4.70;;;4.43;;
17147;SDS011;8689;47.364;8.796;2024-02-14T05:05:32;5.23;;;4.80;;
17147;SDS011;8689;47.364;8.796;2024-02-14T05:08:00;5.30;;;5.00;;
17147;SDS011;8689;47.364;8.796;2024-02-14T05:10:28;5.10;;;4.80;;
17147;SDS011;8689;47.364;8.796;2024-02-14T05:12:57;5.07;;;4.67;;
17147;SDS011;8689;47.364;8.796;2024-02-14T05:15:26;5.50;;;5.10;;
17147;SDS011;8689;47.364;8.796;2024-02-14T05:17:55;4.10;;;3.90;;
17147;SDS011;8689;47.364;8.796;2024-02-14T05:20:23;3.97;;;3.77;;
17147;SDS011;8689;47.364;8.796;2024-02-14T05:22:50;5.97;;;4.30;;
17147;SDS011;8689;47.364;8.796;2024-02-14T05:28:35;5.00;;;4.70;;
17147;SDS011;8689;47.364;8.796;2024-02-14T05:35:08;4.87;;;4.40;;
17147;SDS011;8689;47.364;8.796;2024-02-14T05:37:45;4.77;;;4.47;;
17147;SDS011;8689;47.364;8.796;2024-02-14T05:40:19;4.70;;;4.13;;
17147;SDS011;8689;47.364;8.796;2024-02-14T05:42:47;4.47;;;4.17;;
17147;SDS011;8689;47.364;8.796;2024-02-14T05:45:16;3.97;;;3.70;;
17147;SDS011;8689;47.364;8.796;2024-02-14T05:47:54;5.37;;;4.67;;
17147;SDS011;8689;47.364;8.796;2024-02-14T05:50:36;5.00;;;4.70;;
17147;SDS011;8689;47.364;8.796;2024-02-14T05:53:34;6.43;;;4.27;;
17147;SDS011;8689;47.364;8.796;2024-02-14T05:56:04;4.40;;;4.10;;
17147;SDS011;8689;47.364;8.796;2024-02-14T05:58:33;4.23;;;4.03;;
17147;SDS011;8689;47.364;8.796;2024-02-14T06:01:03;4.70;;;4.40;;
17147;SDS011;8689;47.364;8.796;2024-02-14T06:03:30;4.40;;;4.00;;
17147;SDS011;8689;47.364;8.796;2024-02-14T06:05:58;5.10;;;4.77;;
17147;SDS011;8689;47.364;8.796;2024-02-14T06:08:25;4.80;;;4.17;;
17147;SDS011;8689;47.364;8.796;2024-02-14T06:10:53;7.57;;;4.47;;
17147;SDS011;8689;47.364;8.796;2024-02-14T06:13:20;4.47;;;4.17;;
17147;SDS011;8689;47.364;8.796;2024-02-14T06:15:52;4.57;;;4.27;;
17147;SDS011;8689;47.364;8.796;2024-02-14T06:18:37;5.30;;;4.80;;
17147;SDS011;8689;47.364;8.796;2024-02-14T06:21:10;4.63;;;4.23;;
17147;SDS011;8689;47.364;8.796;2024-02-14T06:23:38;4.90;;;4.30;;
17147;SDS011;8689;47.364;8.796;2024-02-14T06:26:07;5.87;;;5.47;;
17147;SDS011;8689;47.364;8.796;2024-02-14T06:28:37;4.67;;;4.30;;
17147;SDS011;8689;47.364;8.796;2024-02-14T06:31:19;5.90;;;5.00;;
17147;SDS011;8689;47.364;8.796;2024-02-14T06:34:04;5.27;;;4.37;;
17147;SDS011;8689;47.364;8.796;2024-02-14T06:37:05;5.27;;;4.87;;
17147;SDS011;8689;47.364;8.796;2024-02-14T06:39:58;4.97;;;4.50;;
17147;SDS011;8689;47.364;8.796;2024-02-14T06:42:33;4.83;;;4.47;;
17147;SDS011;8689;47.364;8.796;2024-02-14T06:45:03;5.00;;;4.60;;
17147;SDS011;8689;47.364;8.796;2024-02-14T06:47:44;5.20;;;4.80;;
17147;SDS011;8689;47.364;8.796;2024-02-14T06:50:13;5.47;;;4.63;;
17147;SDS011;8689;47.364;8.796;2024-02-14T06:52:41;5.20;;;4.87;;
17147;SDS011;8689;47.364;8.796;2024-02-14T06:55:08;4.10;;;3.80;;
17147;SDS011;8689;47.364;8.796;2024-02-14T06:57:38;3.87;;;3.67;;
17147;SDS011;8689;47.364;8.796;2024-02-14T07:00:16;4.30;;;3.90;;
17147;SDS011;8689;47.364;8.796;2024-02-14T07:02:45;4.67;;;4.37;;
17147;SDS011;8689;47.364;8.796;2024-02-14T07:05:14;4.07;;;3.77;;
17147;SDS011;8689;47.364;8.796;2024-02-14T07:07:42;4.60;;;4.27;;
17147;SDS011;8689;47.364;8.796;2024-02-14T07:10:09;4.00;;;3.70;;
17147;SDS011;8689;47.364;8.796;2024-02-14T07:12:39;4.80;;;4.47;;
17147;SDS011;8689;47.364;8.796;2024-02-14T07:15:07;4.00;;;3.77;;
17147;SDS011;8689;47.364;8.796;2024-02-14T07:17:43;4.20;;;3.90;;
17147;SDS011;8689;47.364;8.796;2024-02-14T07:20:11;4.60;;;4.30;;
17147;SDS011;8689;47.364;8.796;2024-02-14T07:22:42;8.03;;;4.63;;
17147;SDS011;8689;47.364;8.796;2024-02-14T07:25:11;4.20;;;3.80;;
17147;SDS011;8689;47.364;8.796;2024-02-14T07:27:39;5.20;;;4.70;;
17147;SDS011;8689;47.364;8.796;2024-02-14T07:30:08;4.90;;;4.50;;
17147;SDS011;8689;47.364;8.796;2024-02-14T07:32:36;7.57;;;4.90;;
17147;SDS011;8689;47.364;8.796;2024-02-14T07:35:04;4.97;;;4.67;;
17147;SDS011;8689;47.364;8.796;2024-02-14T07:37:33;6.23;;;5.63;;
17147;SDS011;8689;47.364;8.796;2024-02-14T07:40:04;5.70;;;5.30;;
17147;SDS011;8689;47.364;8.796;2024-02-14T07:42:31;6.50;;;5.77;;
17147;SDS011;8689;47.364;8.796;2024-02-14T07:44:59;6.50;;;6.00;;
17147;SDS011;8689;47.364;8.796;2024-02-14T07:47:28;6.53;;;5.93;;
17147;SDS011;8689;47.364;8.796;2024-02-14T07:49:56;5.10;;;4.80;;
17147;SDS011;8689;47.364;8.796;2024-02-14T07:52:24;5.63;;;5.23;;
17147;SDS011;8689;47.364;8.796;2024-02-14T07:54:52;6.47;;;4.87;;
17147;SDS011;8689;47.364;8.796;2024-02-14T07:57:22;8.33;;;6.43;;
17147;SDS011;8689;47.364;8.796;2024-02-14T07:59:50;6.50;;;5.93;;
17147;SDS011;8689;47.364;8.796;2024-02-14T08:02:18;7.53;;;5.67;;
17147;SDS011;8689;47.364;8.796;2024-02-14T08:04:46;6.23;;;5.83;;
17147;SDS011;8689;47.364;8.796;2024-02-14T08:07:14;5.77;;;5.33;;
17147;SDS011;8689;47.364;8.796;2024-02-14T08:09:41;6.07;;;5.57;;
17147;SDS011;8689;47.364;8.796;2024-02-14T08:12:09;9.50;;;7.53;;
17147;SDS011;8689;47.364;8.796;2024-02-14T08:14:38;8.03;;;7.00;;
17147;SDS011;8689;47.364;8.796;2024-02-14T08:17:06;7.97;;;7.17;;
17147;SDS011;8689;47.364;8.796;2024-02-14T08:19:34;8.73;;;7.60;;
17147;SDS011;8689;47.364;8.796;2024-02-14T08:22:01;7.90;;;7.17;;
17147;SDS011;8689;47.364;8.796;2024-02-14T08:24:29;8.73;;;7.67;;
17147;SDS011;8689;47.364;8.796;2024-02-14T08:26:56;7.30;;;6.60;;
17147;SDS011;8689;47.364;8.796;2024-02-14T08:29:24;5.50;;;5.07;;
17147;SDS011;8689;47.364;8.796;2024-02-14T08:31:53;5.73;;;5.23;;
17147;SDS011;8689;47.364;8.796;2024-02-14T08:34:21;5.63;;;5.23;;
17147;SDS011;8689;47.364;8.796;2024-02-14T08:36:49;5.87;;;5.40;;
17147;SDS011;8689;47.364;8.796;2024-02-14T08:39:17;7.10;;;6.37;;
17147;SDS011;8689;47.364;8.796;2024-02-14T08:41:45;6.00;;;5.50;;
17147;SDS011;8689;47.364;8.796;2024-02-14T08:44:12;6.00;;;4.93;;
17147;SDS011;8689;47.364;8.796;2024-02-14T08:46:39;9.13;;;8.17;;
17147;SDS011;8689;47.364;8.796;2024-02-14T08:49:11;11.33;;;6.13;;
17147;SDS011;8689;47.364;8.796;2024-02-14T08:51:38;5.70;;;5.17;;
17147;SDS011;8689;47.364;8.796;2024-02-14T08:54:07;5.63;;;5.20;;
17147;SDS011;8689;47.364;8.796;2024-02-14T08:56:34;8.53;;;5.90;;
17147;SDS011;8689;47.364;8.796;2024-02-14T08:59:03;6.47;;;5.23;;
17147;SDS011;8689;47.364;8.796;2024-02-14T09:01:32;6.57;;;5.60;;
17147;SDS011;8689;47.364;8.796;2024-02-14T09:04:01;5.37;;;4.90;;
17147;SDS011;8689;47.364;8.796;2024-02-14T09:06:30;9.43;;;4.70;;
17147;SDS011;8689;47.364;8.796;2024-02-14T09:08:58;11.67;;;5.23;;
17147;SDS011;8689;47.364;8.796;2024-02-14T09:11:25;7.80;;;5.13;;
17147;SDS011;8689;47.364;8.796;2024-02-14T09:13:53;5.63;;;5.13;;
17147;SDS011;8689;47.364;8.796;2024-02-14T09:16:27;6.07;;;5.50;;
17147;SDS011;8689;47.364;8.796;2024-02-14T09:18:54;8.67;;;5.20;;
17147;SDS011;8689;47.364;8.796;2024-02-14T09:21:22;19.17;;;11.00;;
17147;SDS011;8689;47.364;8.796;2024-02-14T09:23:51;8.23;;;5.73;;
17147;SDS011;8689;47.364;8.796;2024-02-14T09:26:20;7.90;;;4.60;;
17147;SDS011;8689;47.364;8.796;2024-02-14T09:28:47;5.43;;;4.60;;
17147;SDS011;8689;47.364;8.796;2024-02-14T09:31:18;6.13;;;4.60;;
17147;SDS011;8689;47.364;8.796;2024-02-14T09:33:46;4.83;;;4.43;;
17147;SDS011;8689;47.364;8.796;2024-02-14T09:36:14;6.87;;;4.90;;
17147;SDS011;8689;47.364;8.796;2024-02-14T09:38:42;6.20;;;4.67;;
17147;SDS011;8689;47.364;8.796;2024-02-14T09:41:14;7.97;;;4.37;;
17147;SDS011;8689;47.364;8.796;2024-02-14T09:43:45;7.40;;;4.87;;
17147;SDS011;8689;47.364;8.796;2024-02-14T09:46:16;4.90;;;4.50;;
17147;SDS011;8689;47.364;8.796;2024-02-14T09:48:44;6.57;;;5.10;;
17147;SDS011;8689;47.364;8.796;2024-02-14T09:51:12;6.23;;;4.37;;
17147;SDS011;8689;47.364;8.796;2024-02-14T09:53:39;6.37;;;4.40;;
17147;SDS011;8689;47.364;8.796;2024-02-14T09:56:09;4.60;;;4.20;;
17147;SDS011;8689;47.364;8.796;2024-02-14T09:58:40;4.63;;;3.97;;
17147;SDS011;8689;47.364;8.796;2024-02-14T10:01:08;4.23;;;3.73;;
17147;SDS011;8689;47.364;8.796;2024-02-14T10:03:36;4.30;;;3.93;;
17147;SDS011;8689;47.364;8.796;2024-02-14T10:06:21;3.90;;;3.60;;
17147;SDS011;8689;47.364;8.796;2024-02-14T10:08:49;5.53;;;3.43;;
17147;SDS011;8689;47.364;8.796;2024-02-14T10:11:16;8.23;;;4.00;;
17147;SDS011;8689;47.364;8.796;2024-02-14T10:16:59;3.77;;;3.40;;
17147;SDS011;8689;47.364;8.796;2024-02-14T10:19:28;3.33;;;3.07;;
17147;SDS011;8689;47.364;8.796;2024-02-14T10:21:56;7.50;;;3.80;;
17147;SDS011;8689;47.364;8.796;2024-02-14T10:24:24;4.37;;;4.07;;
17147;SDS011;8689;47.364;8.796;2024-02-14T10:26:53;5.90;;;3.47;;
17147;SDS011;8689;47.364;8.796;2024-02-14T10:29:50;3.30;;;3.10;;
17147;SDS011;8689;47.364;8.796;2024-02-14T10:35:42;3.93;;;3.63;;
17147;SDS011;8689;47.364;8.796;2024-02-14T10:38:10;3.63;;;3.33;;
17147;SDS011;8689;47.364;8.796;2024-02-14T10:40:38;3.67;;;3.37;;
17147;SDS011;8689;47.364;8.796;2024-02-14T10:43:10;6.40;;;3.67;;
17147;SDS011;8689;47.364;8.796;2024-02-14T10:45:38;3.63;;;3.33;;
17147;SDS011;8689;47.364;8.796;2024-02-14T10:48:07;5.10;;;3.33;;
17147;SDS011;8689;47.364;8.796;2024-02-14T10:50:38;3.10;;;2.90;;
17147;SDS011;8689;47.364;8.796;2024-02-14T10:56:37;3.20;;;3.00;;
17147;SDS011;8689;47.364;8.796;2024-02-14T10:59:25;3.33;;;3.13;;
17147;SDS011;8689;47.364;8.796;2024-02-14T11:02:19;3.30;;;3.10;;
17147;SDS011;8689;47.364;8.796;2024-02-14T11:08:13;4.27;;;3.27;;
17147;SDS011;8689;47.364;8.796;2024-02-14T11:11:17;3.03;;;2.93;;
17147;SDS011;8689;47.364;8.796;2024-02-14T11:16:47;3.27;;;3.07;;
17147;SDS011;8689;47.364;8.796;2024-02-14T11:19:14;3.27;;;2.97;;
17147;SDS011;8689;47.364;8.796;2024-02-14T11:21:55;2.90;;;2.80;;
17147;SDS011;8689;47.364;8.796;2024-02-14T11:24:41;3.13;;;2.93;;
17147;SDS011;8689;47.364;8.796;2024-02-14T11:27:25;2.70;;;2.60;;
17147;SDS011;8689;47.364;8.796;2024-02-14T11:33:32;3.03;;;2.83;;
17147;SDS011;8689;47.364;8.796;2024-02-14T11:36:07;3.80;;;2.93;;
17147;SDS011;8689;47.364;8.796;2024-02-14T11:38:36;4.23;;;3.07;;
17147;SDS011;8689;47.364;8.796;2024-02-14T11:41:05;2.77;;;2.60;;
17147;SDS011;8689;47.364;8.796;2024-02-14T11:43:34;3.17;;;2.87;;
17147;SDS011;8689;47.364;8.796;2024-02-14T11:46:01;2.60;;;2.33;;
17147;SDS011;8689;47.364;8.796;2024-02-14T11:48:30;2.70;;;2.50;;
17147;SDS011;8689;47.364;8.796;2024-02-14T11:50:57;5.47;;;2.90;;
17147;SDS011;8689;47.364;8.796;2024-02-14T11:53:24;4.73;;;3.10;;
17147;SDS011;8689;47.364;8.796;2024-02-14T11:55:55;2.70;;;2.50;;
17147;SDS011;8689;47.364;8.796;2024-02-14T11:58:22;2.40;;;2.20;;
17147;SDS011;8689;47.364;8.796;2024-02-14T12:00:52;2.87;;;2.67;;
17147;SDS011;8689;47.364;8.796;2024-02-14T12:03:21;3.00;;;2.80;;
17147;SDS011;8689;47.364;8.796;2024-02-14T12:05:51;2.57;;;2.47;;
17147;SDS011;8689;47.364;8.796;2024-02-14T12:11:17;3.17;;;2.87;;
17147;SDS011;8689;47.364;8.796;2024-02-14T12:13:51;2.43;;;2.30;;
17147;SDS011;8689;47.364;8.796;2024-02-14T12:16:37;2.77;;;2.57;;
17147;SDS011;8689;47.364;8.796;2024-02-14T12:19:08;2.60;;;2.40;;
17147;SDS011;8689;47.364;8.796;2024-02-14T12:21:36;3.33;;;2.77;;
17147;SDS011;8689;47.364;8.796;2024-02-14T12:24:06;2.83;;;2.40;;
17147;SDS011;8689;47.364;8.796;2024-02-14T12:26:35;2.77;;;2.57;;
17147;SDS011;8689;47.364;8.796;2024-02-14T12:29:14;4.87;;;2.67;;
17147;SDS011;8689;47.364;8.796;2024-02-14T12:31:45;2.60;;;2.40;;
17147;SDS011;8689;47.364;8.796;2024-02-14T12:34:12;2.70;;;2.50;;
17147;SDS011;8689;47.364;8.796;2024-02-14T12:36:39;3.90;;;2.27;;
17147;SDS011;8689;47.364;8.796;2024-02-14T12:39:12;2.77;;;2.57;;
17147;SDS011;8689;47.364;8.796;2024-02-14T12:41:40;2.60;;;2.40;;
17147;SDS011;8689;47.364;8.796;2024-02-14T12:44:08;2.80;;;2.60;;
17147;SDS011;8689;47.364;8.796;2024-02-14T12:46:36;2.67;;;2.47;;
17147;SDS011;8689;47.364;8.796;2024-02-14T12:49:09;2.93;;;2.63;;
17147;SDS011;8689;47.364;8.796;2024-02-14T12:51:37;3.10;;;2.83;;
17147;SDS011;8689;47.364;8.796;2024-02-14T12:54:05;3.47;;;2.50;;
17147;SDS011;8689;47.364;8.796;2024-02-14T12:56:35;4.37;;;2.53;;
17147;SDS011;8689;47.364;8.796;2024-02-14T12:59:03;2.43;;;2.33;;
17147;SDS011;8689;47.364;8.796;2024-02-14T13:01:35;2.97;;;2.77;;
17147;SDS011;8689;47.364;8.796;2024-02-14T13:04:03;4.77;;;2.77;;
17147;SDS011;8689;47.364;8.796;2024-02-14T13:09:40;2.97;;;2.77;;
17147;SDS011;8689;47.364;8.796;2024-02-14T13:15:34;3.33;;;2.80;;
17147;SDS011;8689;47.364;8.796;2024-02-14T13:18:03;3.67;;;2.63;;
17147;SDS011;8689;47.364;8.796;2024-02-14T13:20:31;3.20;;;3.00;;
17147;SDS011;8689;47.364;8.796;2024-02-14T13:26:26;3.17;;;2.50;;
17147;SDS011;8689;47.364;8.796;2024-02-14T13:28:57;35.63;;;5.30;;
17147;SDS011;8689;47.364;8.796;2024-02-14T13:34:28;2.93;;;2.73;;
17147;SDS011;8689;47.364;8.796;2024-02-14T13:36:55;2.60;;;2.40;;
17147;SDS011;8689;47.364;8.796;2024-02-14T13:39:23;2.70;;;2.50;;
17147;SDS011;8689;47.364;8.796;2024-02-14T13:41:52;2.70;;;2.50;;
17147;SDS011;8689;47.364;8.796;2024-02-14T13:44:27;2.80;;;2.60;;
17147;SDS011;8689;47.364;8.796;2024-02-14T13:47:06;2.80;;;2.60;;
17147;SDS011;8689;47.364;8.796;2024-02-14T13:49:34;3.23;;;2.93;;
17147;SDS011;8689;47.364;8.796;2024-02-14T13:52:04;3.20;;;3.00;;
17147;SDS011;8689;47.364;8.796;2024-02-14T13:54:31;3.90;;;2.93;;
17147;SDS011;8689;47.364;8.796;2024-02-14T13:57:00;4.00;;;2.87;;
17147;SDS011;8689;47.364;8.796;2024-02-14T13:59:56;3.13;;;2.93;;
17147;SDS011;8689;47.364;8.796;2024-02-14T14:02:23;2.80;;;2.70;;
17147;SDS011;8689;47.364;8.796;2024-02-14T14:04:50;3.00;;;2.80;;
17147;SDS011;8689;47.364;8.796;2024-02-14T14:07:31;4.80;;;3.30;;
17147;SDS011;8689;47.364;8.796;2024-02-14T14:10:12;2.80;;;2.60;;
17147;SDS011;8689;47.364;8.796;2024-02-14T14:12:41;3.13;;;2.90;;
17147;SDS011;8689;47.364;8.796;2024-02-14T14:15:14;3.50;;;3.07;;
17147;SDS011;8689;47.364;8.796;2024-02-14T14:21:29;3.30;;;3.00;;
17147;SDS011;8689;47.364;8.796;2024-02-14T14:23:56;4.33;;;2.87;;
17147;SDS011;8689;47.364;8.796;2024-02-14T14:29:47;4.93;;;2.83;;
17147;SDS011;8689;47.364;8.796;2024-02-14T14:32:18;2.90;;;2.70;;
17147;SDS011;8689;47.364;8.796;2024-02-14T14:34:47;3.00;;;2.80;;
17147;SDS011;8689;47.364;8.796;2024-02-14T14:37:30;3.37;;;3.07;;
17147;SDS011;8689;47.364;8.796;2024-02-14T14:40:06;6.13;;;2.90;;
17147;SDS011;8689;47.364;8.796;2024-02-14T14:46:05;3.27;;;3.07;;
17147;SDS011;8689;47.364;8.796;2024-02-14T14:51:40;3.30;;;3.07;;
17147;SDS011;8689;47.364;8.796;2024-02-14T15:03:32;3.40;;;3.20;;
17147;SDS011;8689;47.364;8.796;2024-02-14T15:06:00;3.47;;;3.17;;
17147;SDS011;8689;47.364;8.796;2024-02-14T15:11:43;5.50;;;4.83;;
17147;SDS011;8689;47.364;8.796;2024-02-14T15:14:11;4.33;;;4.03;;
17147;SDS011;8689;47.364;8.796;2024-02-14T15:16:39;4.03;;;3.73;;
17147;SDS011;8689;47.364;8.796;2024-02-14T15:19:08;4.40;;;4.03;;
17147;SDS011;8689;47.364;8.796;2024-02-14T15:21:36;3.90;;;3.60;;
17147;SDS011;8689;47.364;8.796;2024-02-14T15:24:11;4.17;;;3.87;;
17147;SDS011;8689;47.364;8.796;2024-02-14T15:30:16;3.40;;;3.10;;
17147;SDS011;8689;47.364;8.796;2024-02-14T15:33:01;3.90;;;3.53;;
17147;SDS011;8689;47.364;8.796;2024-02-14T15:35:53;4.97;;;4.57;;
17147;SDS011;8689;47.364;8.796;2024-02-14T15:38:37;3.83;;;3.47;;
17147;SDS011;8689;47.364;8.796;2024-02-14T15:41:30;3.57;;;3.37;;
17147;SDS011;8689;47.364;8.796;2024-02-14T15:43:57;3.07;;;2.87;;
17147;SDS011;8689;47.364;8.796;2024-02-14T15:46:24;3.67;;;3.33;;
17147;SDS011;8689;47.364;8.796;2024-02-14T15:48:51;3.53;;;3.33;;
17147;SDS011;8689;47.364;8.796;2024-02-14T15:51:21;3.23;;;3.03;;
17147;SDS011;8689;47.364;8.796;2024-02-14T15:53:55;3.43;;;3.17;;
17147;SDS011;8689;47.364;8.796;2024-02-14T15:56:23;6.30;;;2.97;;
17147;SDS011;8689;47.364;8.796;2024-02-14T15:58:51;3.37;;;3.10;;
17147;SDS011;8689;47.364;8.796;2024-02-14T16:01:18;3.57;;;3.33;;
17147;SDS011;8689;47.364;8.796;2024-02-14T16:03:45;4.30;;;3.37;;
17147;SDS011;8689;47.364;8.796;2024-02-14T16:06:13;6.97;;;3.73;;
17147;SDS011;8689;47.364;8.796;2024-02-14T16:08:58;3.70;;;3.50;;
17147;SDS011;8689;47.364;8.796;2024-02-14T16:21:49;3.87;;;3.63;;
17147;SDS011;8689;47.364;8.796;2024-02-14T16:34:36;4.27;;;3.97;;
17147;SDS011;8689;47.364;8.796;2024-02-14T16:37:13;4.80;;;4.40;;
17147;SDS011;8689;47.364;8.796;2024-02-14T16:39:42;4.40;;;4.10;;
17147;SDS011;8689;47.364;8.796;2024-02-14T16:42:18;4.87;;;4.57;;
17147;SDS011;8689;47.364;8.796;2024-02-14T16:51:38;6.03;;;4.87;;
17147;SDS011;8689;47.364;8.796;2024-02-14T17:00:05;4.87;;;4.37;;
17147;SDS011;8689;47.364;8.796;2024-02-14T17:03:13;4.90;;;4.37;;
17147;SDS011;8689;47.364;8.796;2024-02-14T17:09:07;5.30;;;4.70;;
17147;SDS011;8689;47.364;8.796;2024-02-14T17:14:32;8.70;;;4.10;;